Time;durP1;ratioP1;P1;durP2;ratioP2;P2;SDS_P1;SDS_P2;PMS_P1;PMS_P2;Temp;Humidity;BMP_temperature;BMP_pressure;BME280_temperature;BME280_humidity;BME280_pressure;Samples;Min_cycle;Max_cycle;Signal;HPM_P1;HPM_P2
2022/01/07 00:01:51;;;;;;;13.10;5.43;;;4.00;99.90;;;;;;5129163;27;20134;-72
2022/01/07 00:04:17;;;;;;;11.88;5.47;;;3.80;99.90;;;;;;5125847;27;20043;-73
2022/01/07 00:06:42;;;;;;;12.70;4.82;;;3.90;99.90;;;;;;5112792;27;20042;-72
2022/01/07 00:09:08;;;;;;;12.65;6.00;;;3.90;99.90;;;;;;5111598;27;20038;-75
2022/01/07 00:11:35;;;;;;;11.30;5.60;;;3.90;99.90;;;;;;5101518;27;20429;-75
2022/01/07 00:14:01;;;;;;;7.93;4.53;;;3.90;99.90;;;;;;5113117;27;20038;-73
2022/01/07 00:16:27;;;;;;;10.55;5.28;;;3.80;99.90;;;;;;5110267;27;20109;-71
2022/01/07 00:18:52;;;;;;;15.48;7.00;;;3.80;99.90;;;;;;5117957;27;20039;-73
2022/01/07 00:21:18;;;;;;;15.07;6.28;;;3.90;99.90;;;;;;5130104;27;20114;-74
2022/01/07 00:23:44;;;;;;;12.57;5.63;;;3.90;99.90;;;;;;5114258;27;20097;-72
2022/01/07 00:26:10;;;;;;;12.00;5.35;;;3.90;99.90;;;;;;5105682;27;20042;-73
2022/01/07 00:28:35;;;;;;;12.63;5.43;;;3.90;99.90;;;;;;5108701;27;20042;-73
2022/01/07 00:31:02;;;;;;;9.32;5.55;;;3.80;99.90;;;;;;5127719;27;20038;-73
2022/01/07 00:33:27;;;;;;;14.25;5.55;;;3.80;99.90;;;;;;5116224;27;20390;-73
2022/01/07 00:35:56;;;;;;;13.82;5.78;;;3.90;99.90;;;;;;5112822;27;20035;-74
2022/01/07 00:38:22;;;;;;;14.40;5.85;;;3.80;99.90;;;;;;5103067;27;20421;-72
2022/01/07 00:40:48;;;;;;;15.40;6.22;;;3.80;99.90;;;;;;5125502;27;20110;-74
2022/01/07 00:43:14;;;;;;;15.35;5.97;;;3.80;99.90;;;;;;5107331;27;20117;-71
2022/01/07 00:45:41;;;;;;;12.63;5.22;;;3.70;99.90;;;;;;5129184;27;20038;-75
2022/01/07 00:48:07;;;;;;;14.20;5.93;;;3.90;99.90;;;;;;5129275;27;20115;-73
2022/01/07 00:50:33;;;;;;;14.20;6.13;;;3.70;99.90;;;;;;5126518;27;20137;-75
2022/01/07 00:53:00;;;;;;;20.15;6.75;;;3.80;99.90;;;;;;5121191;27;20114;-73
2022/01/07 00:55:26;;;;;;;16.55;6.53;;;3.90;99.90;;;;;;5126768;27;20121;-74
2022/01/07 00:57:53;;;;;;;11.20;5.72;;;3.50;99.90;;;;;;5116883;27;20041;-73
2022/01/07 01:00:21;;;;;;;14.80;6.30;;;3.50;99.90;;;;;;5111967;27;20088;-75
2022/01/07 01:02:48;;;;;;;14.52;5.70;;;3.50;99.90;;;;;;5133024;27;20474;-72
2022/01/07 01:05:15;;;;;;;12.88;6.80;;;3.50;99.90;;;;;;5109293;27;20058;-72
2022/01/07 01:07:42;;;;;;;15.73;7.18;;;3.80;99.90;;;;;;5128305;27;20047;-73
2022/01/07 01:10:08;;;;;;;15.65;6.63;;;3.40;99.90;;;;;;5124512;27;20039;-73
2022/01/07 01:12:35;;;;;;;11.77;5.95;;;3.40;99.90;;;;;;5130722;27;20039;-73
2022/01/07 01:15:03;;;;;;;16.73;6.40;;;3.60;99.90;;;;;;5123704;27;20039;-72
2022/01/07 01:17:29;;;;;;;12.35;6.60;;;3.40;99.90;;;;;;5114713;27;20131;-73
2022/01/07 01:19:57;;;;;;;10.73;5.45;;;3.50;99.90;;;;;;5095705;27;20047;-74
2022/01/07 01:22:23;;;;;;;13.02;6.20;;;3.40;99.90;;;;;;5092695;27;20092;-76
2022/01/07 01:24:49;;;;;;;11.40;5.90;;;3.50;99.90;;;;;;5091004;27;20039;-74
2022/01/07 01:27:15;;;;;;;11.00;7.15;;;4.50;99.90;;;;;;5115452;27;20036;-76
2022/01/07 01:29:40;;;;;;;16.90;7.63;;;3.50;99.90;;;;;;5107161;27;20047;-76
2022/01/07 01:32:06;;;;;;;11.30;6.20;;;3.50;99.90;;;;;;5127320;27;20043;-75
2022/01/07 01:34:32;;;;;;;11.13;5.82;;;3.50;99.90;;;;;;5130146;27;20039;-73
2022/01/07 01:36:58;;;;;;;14.95;6.65;;;3.30;99.90;;;;;;5114568;27;20043;-73
2022/01/07 01:39:24;;;;;;;13.27;6.85;;;3.50;99.90;;;;;;5090499;27;20031;-74
2022/01/07 01:41:49;;;;;;;10.00;6.05;;;3.50;99.90;;;;;;5104114;27;20074;-73
2022/01/07 01:44:15;;;;;;;10.93;5.32;;;3.30;99.90;;;;;;5114535;27;20496;-73
2022/01/07 01:46:41;;;;;;;13.10;6.30;;;3.40;99.90;;;;;;5129130;27;20070;-75
2022/01/07 01:49:07;;;;;;;18.05;7.07;;;3.30;99.90;;;;;;5128800;27;20047;-73
2022/01/07 01:51:34;;;;;;;13.90;6.45;;;3.30;99.90;;;;;;5128036;27;20646;-73
2022/01/07 01:54:01;;;;;;;9.82;5.93;;;3.80;99.90;;;;;;5112077;27;20513;-74
2022/01/07 01:56:26;;;;;;;15.80;7.70;;;3.40;99.90;;;;;;5108493;28;20539;-74
2022/01/07 01:58:52;;;;;;;11.43;5.45;;;3.50;99.90;;;;;;5097136;27;20035;-72
2022/01/07 02:01:18;;;;;;;15.32;5.90;;;3.60;99.90;;;;;;5121109;27;20127;-75
2022/01/07 02:03:44;;;;;;;9.93;6.28;;;3.40;99.90;;;;;;5123854;27;20068;-77
2022/01/07 02:06:10;;;;;;;11.02;5.90;;;3.40;99.90;;;;;;5128138;27;20100;-74
2022/01/07 02:08:37;;;;;;;16.20;7.53;;;3.60;99.90;;;;;;5112740;27;20039;-76
2022/01/07 02:11:06;;;;;;;13.43;6.47;;;3.50;99.90;;;;;;5124200;27;20696;-75
2022/01/07 02:13:31;;;;;;;14.90;5.00;;;3.40;99.90;;;;;;5127964;27;20046;-73
2022/01/07 02:15:57;;;;;;;16.70;7.38;;;3.60;99.90;;;;;;5128009;27;20035;-76
2022/01/07 02:18:23;;;;;;;9.00;5.90;;;3.50;99.90;;;;;;5129726;27;20092;-74
2022/01/07 02:20:49;;;;;;;15.23;7.20;;;3.40;99.90;;;;;;5111825;27;20035;-72
2022/01/07 02:23:17;;;;;;;8.40;5.70;;;3.70;99.90;;;;;;5127712;27;20049;-74
2022/01/07 02:25:44;;;;;;;14.02;5.43;;;3.40;99.90;;;;;;5109465;27;20031;-75
2022/01/07 02:28:11;;;;;;;12.40;7.85;;;3.40;99.90;;;;;;5096767;27;20130;-74
2022/01/07 02:30:37;;;;;;;12.13;7.43;;;3.50;99.90;;;;;;5129382;27;20078;-74
2022/01/07 02:33:03;;;;;;;10.85;6.65;;;3.80;99.90;;;;;;5130487;27;20495;-74
2022/01/07 02:35:31;;;;;;;14.25;8.10;;;3.50;99.90;;;;;;5143173;27;20038;-74
2022/01/07 02:37:58;;;;;;;10.95;7.15;;;3.40;99.90;;;;;;5112015;27;20437;-73
2022/01/07 02:40:24;;;;;;;15.98;7.93;;;3.90;99.90;;;;;;5128256;27;20047;-74
2022/01/07 02:42:51;;;;;;;15.48;7.50;;;3.90;99.90;;;;;;5112077;27;20047;-74
2022/01/07 02:45:17;;;;;;;12.80;8.40;;;3.40;99.90;;;;;;5125508;27;20066;-73
2022/01/07 02:47:53;;;;;;;12.85;7.57;;;3.80;99.90;;;;;;5127107;27;20062;-75
2022/01/07 02:50:24;;;;;;;10.40;7.53;;;3.60;99.90;;;;;;5127274;27;20027;-75
2022/01/07 02:52:51;;;;;;;15.20;7.53;;;3.90;99.90;;;;;;5109280;27;20554;-73
2022/01/07 02:55:17;;;;;;;13.20;8.55;;;3.50;99.90;;;;;;5110509;27;20122;-75
2022/01/07 02:57:42;;;;;;;11.02;6.63;;;4.20;99.90;;;;;;5110604;27;20118;-74
2022/01/07 03:00:10;;;;;;;12.80;7.95;;;3.90;99.90;;;;;;5127955;27;20055;-74
2022/01/07 03:02:36;;;;;;;11.75;7.20;;;3.60;99.90;;;;;;5089964;28;20395;-75
2022/01/07 03:05:02;;;;;;;10.38;6.88;;;3.90;99.90;;;;;;5081907;28;20047;-73
2022/01/07 03:07:29;;;;;;;13.52;8.00;;;3.90;99.90;;;;;;5119746;27;20047;-75
2022/01/07 03:09:55;;;;;;;10.90;8.35;;;3.90;99.90;;;;;;5092267;27;20039;-74
2022/01/07 03:12:21;;;;;;;10.73;5.53;;;4.00;99.90;;;;;;5112097;27;20042;-71
2022/01/07 03:14:48;;;;;;;12.32;7.82;;;3.90;99.90;;;;;;5110027;27;20035;-76
2022/01/07 03:17:14;;;;;;;11.23;7.53;;;3.80;99.90;;;;;;5107423;28;20081;-73
2022/01/07 03:19:39;;;;;;;14.68;8.00;;;3.70;99.90;;;;;;5091971;27;20035;-75
2022/01/07 03:22:05;;;;;;;8.63;6.45;;;3.50;99.90;;;;;;5126982;27;20471;-76
2022/01/07 03:24:31;;;;;;;8.40;6.22;;;4.00;99.90;;;;;;5126601;27;20057;-74
2022/01/07 03:26:56;;;;;;;15.48;9.43;;;3.80;99.90;;;;;;5079587;27;20098;-76
2022/01/07 03:29:22;;;;;;;15.60;8.63;;;3.80;99.90;;;;;;5096307;28;20043;-75
2022/01/07 03:31:48;;;;;;;12.32;8.30;;;3.80;99.90;;;;;;5087544;27;20038;-73
2022/01/07 03:34:13;;;;;;;16.95;10.43;;;3.60;99.90;;;;;;5128419;27;20043;-76
2022/01/07 03:36:39;;;;;;;13.60;9.85;;;4.00;99.90;;;;;;5094628;27;20050;-73
2022/01/07 03:39:06;;;;;;;16.13;10.05;;;3.90;99.90;;;;;;5128164;27;20260;-72
2022/01/07 03:41:32;;;;;;;12.85;8.77;;;4.00;99.90;;;;;;5127842;27;20482;-74
2022/01/07 03:43:57;;;;;;;14.32;9.00;;;3.80;99.90;;;;;;5127015;27;20039;-74
2022/01/07 03:46:23;;;;;;;19.80;10.60;;;3.60;99.90;;;;;;5091512;28;20035;-75
2022/01/07 03:48:49;;;;;;;15.30;9.77;;;3.70;99.90;;;;;;5110561;27;20372;-74
2022/01/07 03:51:14;;;;;;;16.25;10.48;;;4.00;99.90;;;;;;5124779;28;20039;-73
2022/01/07 03:53:40;;;;;;;16.02;9.32;;;4.10;99.90;;;;;;5109248;28;20062;-73
2022/01/07 03:56:06;;;;;;;16.70;10.43;;;3.80;99.90;;;;;;5126621;28;20043;-75
2022/01/07 03:58:31;;;;;;;15.93;10.65;;;4.00;99.90;;;;;;5127679;28;20735;-75
2022/01/07 04:00:57;;;;;;;17.35;10.18;;;4.00;99.90;;;;;;5119281;28;20040;-74
2022/01/07 04:03:23;;;;;;;19.77;10.07;;;4.00;99.90;;;;;;5106294;27;20055;-74
2022/01/07 04:05:48;;;;;;;18.00;10.35;;;3.70;99.90;;;;;;5132296;27;20038;-75
2022/01/07 04:08:14;;;;;;;14.10;9.98;;;3.90;99.90;;;;;;5107624;28;20038;-73
2022/01/07 04:10:41;;;;;;;16.65;9.52;;;3.70;99.90;;;;;;5090538;28;20428;-74
2022/01/07 04:13:07;;;;;;;16.98;11.40;;;3.70;99.90;;;;;;5127337;27;20066;-74
2022/01/07 04:15:33;;;;;;;18.77;12.27;;;3.80;99.90;;;;;;5114274;27;20676;-76
2022/01/07 04:17:59;;;;;;;18.15;11.60;;;3.70;99.90;;;;;;5126918;27;20466;-75
2022/01/07 04:20:33;;;;;;;16.42;9.82;;;4.10;99.90;;;;;;5113772;27;20031;-73
2022/01/07 04:23:00;;;;;;;17.83;11.85;;;4.10;99.90;;;;;;5123394;27;20031;-72
2022/01/07 04:25:26;;;;;;;17.27;10.82;;;4.20;99.90;;;;;;5129969;27;20539;-73
2022/01/07 04:28:08;;;;;;;26.88;12.40;;;3.70;99.90;;;;;;5126409;27;20077;-72
2022/01/07 04:30:37;;;;;;;16.60;10.43;;;4.50;99.90;;;;;;5130906;27;20035;-70
2022/01/07 04:33:05;;;;;;;16.50;10.40;;;3.80;99.90;;;;;;5135473;27;20033;-75
2022/01/07 04:35:33;;;;;;;15.38;9.93;;;4.00;99.90;;;;;;5135491;27;20538;-72
2022/01/07 04:37:59;;;;;;;16.73;11.30;;;4.10;99.90;;;;;;5133829;27;20034;-73
2022/01/07 04:40:27;;;;;;;16.63;11.98;;;4.30;99.90;;;;;;5133149;27;20310;-77
2022/01/07 04:42:53;;;;;;;17.50;11.30;;;4.20;99.90;;;;;;5117928;27;20038;-73
2022/01/07 04:45:19;;;;;;;14.88;11.50;;;4.70;99.90;;;;;;5132918;27;20051;-75
2022/01/07 04:47:45;;;;;;;13.13;9.07;;;3.90;99.90;;;;;;5135392;27;20043;-74
2022/01/07 04:50:15;;;;;;;15.60;10.38;;;4.00;99.90;;;;;;5129842;27;20050;-76
2022/01/07 04:52:45;;;;;;;15.15;10.85;;;3.90;99.90;;;;;;5131154;27;20042;-72
2022/01/07 04:55:25;;;;;;;19.88;11.52;;;3.80;99.90;;;;;;5109429;27;20061;-76
2022/01/07 04:57:51;;;;;;;16.50;10.80;;;4.10;99.90;;;;;;5130495;27;20038;-73
2022/01/07 05:00:20;;;;;;;15.35;10.60;;;4.20;99.90;;;;;;5133521;27;20034;-72
2022/01/07 05:02:46;;;;;;;14.02;8.98;;;4.20;99.90;;;;;;5098877;27;20047;-73
2022/01/07 05:05:12;;;;;;;14.45;10.63;;;3.90;99.90;;;;;;5115554;27;20513;-74
2022/01/07 05:07:38;;;;;;;15.88;10.63;;;4.20;99.90;;;;;;5118712;27;20042;-75
2022/01/07 05:10:05;;;;;;;16.63;11.35;;;4.20;99.90;;;;;;5127303;27;20039;-74
2022/01/07 05:12:32;;;;;;;13.32;10.30;;;4.10;99.90;;;;;;5081482;27;20058;-73
2022/01/07 05:14:57;;;;;;;17.95;11.15;;;4.10;99.90;;;;;;5126767;27;20065;-72
2022/01/07 05:17:23;;;;;;;15.35;10.30;;;4.20;99.90;;;;;;5134402;27;20514;-74
2022/01/07 05:19:49;;;;;;;15.80;11.38;;;4.10;99.90;;;;;;5129798;27;20095;-74
2022/01/07 05:22:15;;;;;;;18.77;10.35;;;4.30;99.90;;;;;;5098352;27;20386;-76
2022/01/07 05:24:40;;;;;;;16.90;10.57;;;3.90;99.90;;;;;;5111533;27;20095;-76
2022/01/07 05:27:06;;;;;;;18.00;10.45;;;4.20;99.90;;;;;;5126309;27;20031;-74
2022/01/07 05:29:35;;;;;;;18.55;11.90;;;4.20;99.90;;;;;;5113373;27;20095;-72
2022/01/07 05:32:02;;;;;;;15.73;10.57;;;4.30;99.90;;;;;;5109681;27;20043;-73
2022/01/07 05:34:28;;;;;;;16.20;10.52;;;4.30;99.90;;;;;;5112909;27;20038;-74
2022/01/07 05:36:53;;;;;;;14.18;9.50;;;4.00;99.90;;;;;;5135601;27;20050;-73
2022/01/07 05:39:19;;;;;;;14.60;10.13;;;3.90;99.90;;;;;;5113950;27;20049;-72
2022/01/07 05:41:45;;;;;;;13.07;9.60;;;3.90;99.90;;;;;;5116136;27;20118;-74
2022/01/07 05:44:11;;;;;;;14.70;10.05;;;4.30;99.90;;;;;;5126663;27;20035;-75
2022/01/07 05:46:39;;;;;;;15.30;10.60;;;4.30;99.90;;;;;;5114287;27;20043;-74
2022/01/07 05:49:05;;;;;;;13.93;9.82;;;4.20;99.90;;;;;;5126432;27;20046;-72
2022/01/07 05:51:32;;;;;;;17.17;10.63;;;4.20;99.90;;;;;;5095183;27;20452;-73
2022/01/07 05:53:58;;;;;;;16.23;9.95;;;3.90;99.90;;;;;;5112936;27;20093;-74
2022/01/07 05:56:24;;;;;;;18.60;10.10;;;4.00;99.90;;;;;;5132308;27;20030;-74
2022/01/07 05:58:49;;;;;;;13.93;9.43;;;4.20;99.90;;;;;;5116464;27;20038;-72
2022/01/07 06:01:15;;;;;;;14.13;10.18;;;4.00;99.90;;;;;;5115653;27;20122;-72
2022/01/07 06:03:41;;;;;;;12.55;8.73;;;3.90;99.90;;;;;;5104698;27;20130;-73
2022/01/07 06:06:07;;;;;;;13.48;9.48;;;4.10;99.90;;;;;;5122296;27;20067;-71
2022/01/07 06:08:33;;;;;;;14.45;8.82;;;4.30;99.90;;;;;;5117213;27;20420;-72
2022/01/07 06:10:59;;;;;;;14.95;10.50;;;4.00;99.90;;;;;;5114161;27;20065;-75
2022/01/07 06:13:25;;;;;;;14.15;10.18;;;4.30;99.90;;;;;;5115274;27;20042;-72
2022/01/07 06:15:50;;;;;;;16.88;10.80;;;4.10;99.90;;;;;;5127545;27;20047;-71
2022/01/07 06:18:16;;;;;;;12.98;9.15;;;4.60;99.90;;;;;;5133381;27;20047;-72
2022/01/07 06:20:42;;;;;;;16.15;9.95;;;4.00;99.90;;;;;;5128418;27;20042;-72
2022/01/07 06:23:08;;;;;;;15.82;9.70;;;4.10;99.90;;;;;;5132981;27;20038;-71
2022/01/07 06:25:34;;;;;;;13.57;8.38;;;4.30;99.90;;;;;;5111221;27;20042;-73
2022/01/07 06:27:59;;;;;;;14.63;10.02;;;4.00;99.90;;;;;;5117437;27;20034;-74
2022/01/07 06:30:25;;;;;;;14.75;9.82;;;4.30;99.90;;;;;;5113288;27;20047;-73
2022/01/07 06:32:52;;;;;;;11.65;8.85;;;4.10;99.90;;;;;;5115889;27;20039;-72
2022/01/07 06:35:18;;;;;;;14.85;9.93;;;4.00;99.90;;;;;;5131222;27;20042;-73
2022/01/07 06:37:43;;;;;;;15.52;9.48;;;5.00;99.90;;;;;;5132599;27;20107;-73
2022/01/07 06:40:10;;;;;;;14.23;9.07;;;4.00;99.90;;;;;;5126988;27;20046;-75
2022/01/07 06:42:36;;;;;;;14.98;8.98;;;4.30;99.90;;;;;;5096450;27;20047;-73
2022/01/07 06:45:04;;;;;;;13.68;9.82;;;4.10;99.90;;;;;;5101597;27;20091;-70
2022/01/07 06:47:30;;;;;;;12.40;8.90;;;4.00;99.90;;;;;;5131663;27;20079;-71
2022/01/07 06:49:55;;;;;;;14.68;9.68;;;4.00;99.90;;;;;;5097003;27;20668;-73
2022/01/07 06:52:21;;;;;;;14.75;10.63;;;4.00;99.90;;;;;;5130558;27;20038;-73
2022/01/07 06:54:47;;;;;;;13.45;9.55;;;4.30;99.90;;;;;;5128148;27;20074;-72
2022/01/07 06:57:13;;;;;;;14.00;10.35;;;4.40;99.90;;;;;;5128554;27;20043;-73
2022/01/07 06:59:38;;;;;;;15.85;10.70;;;4.30;99.90;;;;;;5115440;27;20038;-73
2022/01/07 07:02:04;;;;;;;14.05;10.02;;;4.20;99.90;;;;;;5122254;27;20108;-71
2022/01/07 07:04:30;;;;;;;15.52;9.60;;;4.10;99.90;;;;;;5098294;27;20084;-74
2022/01/07 07:06:56;;;;;;;16.30;10.85;;;4.10;99.90;;;;;;5089139;27;20047;-71
2022/01/07 07:09:21;;;;;;;11.88;9.45;;;4.50;99.90;;;;;;5131463;27;20569;-74
2022/01/07 07:11:47;;;;;;;13.23;10.00;;;4.40;99.90;;;;;;5131569;27;20043;-72
2022/01/07 07:14:14;;;;;;;15.35;10.27;;;4.10;99.90;;;;;;5115963;27;20047;-72
2022/01/07 07:16:40;;;;;;;15.65;10.40;;;4.50;99.90;;;;;;5097241;27;20086;-71
2022/01/07 07:19:06;;;;;;;15.95;9.98;;;4.90;99.90;;;;;;5131420;27;20516;-73
2022/01/07 07:21:33;;;;;;;15.25;11.27;;;4.20;99.90;;;;;;5114758;27;20039;-72
2022/01/07 07:23:59;;;;;;;14.73;10.85;;;4.30;99.90;;;;;;5131413;27;20465;-72
2022/01/07 07:26:24;;;;;;;18.92;12.05;;;4.60;99.90;;;;;;5085847;27;20038;-73
2022/01/07 07:28:50;;;;;;;16.75;10.82;;;4.60;99.90;;;;;;5114320;27;20042;-73
2022/01/07 07:31:18;;;;;;;16.50;12.27;;;4.30;99.90;;;;;;5124613;27;20125;-71
2022/01/07 07:38:55;;;;;;;20.45;11.70;;;4.40;99.90;;;;;;5134936;27;20054;-75
2022/01/07 07:41:21;;;;;;;18.50;12.75;;;4.50;99.90;;;;;;5117314;27;20066;-74
2022/01/07 07:43:50;;;;;;;22.33;13.52;;;4.60;99.90;;;;;;5133867;27;20390;-77
2022/01/07 07:46:17;;;;;;;13.68;9.82;;;4.70;99.90;;;;;;5122157;27;20039;-73
2022/01/07 07:48:43;;;;;;;16.88;11.45;;;4.40;99.90;;;;;;5135273;27;20046;-70
2022/01/07 07:51:09;;;;;;;15.40;10.25;;;4.50;99.90;;;;;;5134880;27;20046;-74
2022/01/07 07:53:34;;;;;;;14.20;10.80;;;4.80;99.90;;;;;;5134592;27;20091;-73
2022/01/07 07:56:00;;;;;;;16.42;10.88;;;4.50;99.90;;;;;;5117446;27;20057;-73
2022/01/07 07:58:27;;;;;;;15.38;11.73;;;4.50;99.90;;;;;;5116428;27;20039;-71
2022/01/07 08:00:53;;;;;;;19.15;11.65;;;4.60;99.90;;;;;;5134575;27;20387;-73
2022/01/07 08:03:21;;;;;;;18.35;10.93;;;4.70;99.90;;;;;;5117361;27;20043;-71
2022/01/07 08:05:47;;;;;;;18.20;12.63;;;4.90;99.90;;;;;;5134975;27;20111;-71
2022/01/07 08:08:13;;;;;;;21.00;12.88;;;4.90;99.90;;;;;;5109952;27;20423;-71
2022/01/07 08:10:46;;;;;;;16.92;12.32;;;4.80;99.90;;;;;;5137799;27;20073;-71
2022/01/07 08:18:24;;;;;;;19.60;12.77;;;4.70;99.90;;;;;;5137397;27;20507;-74
2022/01/07 08:20:54;;;;;;;24.88;14.77;;;5.00;99.90;;;;;;5121430;27;20123;-77
2022/01/07 08:23:20;;;;;;;20.08;13.57;;;5.00;99.90;;;;;;5102124;27;20026;-69
2022/01/07 08:25:46;;;;;;;26.73;14.13;;;4.80;99.90;;;;;;5095132;27;20030;-74
2022/01/07 08:28:13;;;;;;;27.80;14.05;;;4.90;99.90;;;;;;5101076;27;20034;-72
2022/01/07 08:31:13;;;;;;;21.70;14.18;;;4.90;99.90;;;;;;5130667;27;20047;-72
2022/01/07 08:36:20;;;;;;;21.23;13.15;;;4.90;99.90;;;;;;5132138;27;20049;-73
2022/01/07 08:38:47;;;;;;;19.73;14.23;;;4.80;99.90;;;;;;5114033;27;20697;-71
2022/01/07 08:41:13;;;;;;;24.98;14.35;;;5.10;99.90;;;;;;5132784;27;20123;-74
2022/01/07 08:43:39;;;;;;;24.77;15.25;;;5.00;99.90;;;;;;5087717;27;20085;-71
2022/01/07 08:46:06;;;;;;;23.02;14.07;;;5.20;99.90;;;;;;5117032;27;20030;-72
2022/01/07 08:48:32;;;;;;;22.05;14.75;;;5.20;99.90;;;;;;5131294;27;20171;-71
2022/01/07 08:50:58;;;;;;;21.00;14.52;;;5.30;99.90;;;;;;5129774;27;20564;-71
2022/01/07 08:53:24;;;;;;;28.02;15.95;;;5.00;99.90;;;;;;5131431;27;20035;-71
2022/01/07 08:55:50;;;;;;;25.15;15.43;;;5.10;99.90;;;;;;5131084;27;20049;-71
2022/01/07 08:58:16;;;;;;;25.77;15.80;;;5.50;99.90;;;;;;5128853;27;20140;-72
2022/01/07 09:00:44;;;;;;;22.98;14.93;;;5.20;99.90;;;;;;5111735;27;20072;-75
2022/01/07 09:03:10;;;;;;;25.30;14.90;;;5.20;99.90;;;;;;5096042;27;20855;-71
2022/01/07 09:05:36;;;;;;;25.08;14.32;;;5.40;99.90;;;;;;5125327;27;20059;-73
2022/01/07 09:08:02;;;;;;;26.85;16.40;;;5.30;99.90;;;;;;5106944;27;20058;-74
2022/01/07 09:10:28;;;;;;;23.50;15.02;;;5.30;99.90;;;;;;5073522;27;20490;-70
2022/01/07 09:12:56;;;;;;;21.83;14.60;;;5.40;99.90;;;;;;5125260;27;20046;-73
2022/01/07 09:15:22;;;;;;;26.45;15.10;;;5.30;99.90;;;;;;5071393;28;20111;-74
2022/01/07 09:17:51;;;;;;;23.05;14.85;;;5.50;99.90;;;;;;5115516;27;20175;-73
2022/01/07 09:20:16;;;;;;;27.02;14.02;;;5.30;99.90;;;;;;5108639;27;20111;-74
2022/01/07 09:22:42;;;;;;;26.98;17.05;;;5.60;99.90;;;;;;5090425;27;20494;-71
2022/01/07 09:25:09;;;;;;;26.27;15.15;;;6.50;99.90;;;;;;5108712;27;20050;-73
2022/01/07 09:27:36;;;;;;;27.17;16.10;;;5.40;99.90;;;;;;5125404;27;20108;-72
2022/01/07 09:30:03;;;;;;;25.60;16.27;;;5.60;99.90;;;;;;5123006;27;20082;-69
2022/01/07 09:32:28;;;;;;;26.48;16.38;;;5.60;99.90;;;;;;5107854;27;20116;-70
2022/01/07 09:34:54;;;;;;;25.08;15.60;;;5.40;99.90;;;;;;5125704;27;20444;-71
2022/01/07 09:37:20;;;;;;;25.83;16.38;;;5.50;99.90;;;;;;5125157;27;20451;-71
2022/01/07 09:39:46;;;;;;;26.98;16.83;;;5.60;99.90;;;;;;5103478;27;20112;-71
2022/01/07 09:42:11;;;;;;;21.92;14.93;;;5.50;99.90;;;;;;5109043;27;20039;-72
2022/01/07 09:44:42;;;;;;;33.17;16.65;;;5.50;99.90;;;;;;5125356;27;20046;-72
2022/01/07 09:47:12;;;;;;;26.25;16.30;;;5.60;99.90;;;;;;5108352;27;20043;-71
2022/01/07 09:49:40;;;;;;;29.95;16.30;;;5.70;99.90;;;;;;5107069;27;20047;-71
2022/01/07 09:52:07;;;;;;;26.88;15.43;;;5.60;99.90;;;;;;5126069;27;20104;-72
2022/01/07 09:54:38;;;;;;;26.17;16.48;;;5.80;99.90;;;;;;5106635;27;20718;-70
2022/01/07 09:57:06;;;;;;;24.40;15.90;;;5.80;99.90;;;;;;5123574;27;20081;-71
2022/01/07 09:59:36;;;;;;;25.83;14.90;;;5.70;99.90;;;;;;5115866;27;20134;-70
2022/01/07 10:02:08;;;;;;;29.40;16.73;;;5.60;99.90;;;;;;5112759;27;20046;-72
2022/01/07 10:04:39;;;;;;;24.55;15.02;;;5.80;99.90;;;;;;5119340;27;20059;-71
2022/01/07 10:07:20;;;;;;;23.95;14.07;;;5.80;99.90;;;;;;5106841;27;20058;-71
2022/01/07 10:10:21;;;;;;;23.67;14.88;;;5.80;99.90;;;;;;5094467;27;20486;-73
2022/01/07 10:13:04;;;;;;;24.77;14.40;;;5.70;99.90;;;;;;4992708;28;20136;-71
2022/01/07 10:15:31;;;;;;;19.83;14.05;;;5.70;99.90;;;;;;5113931;27;20100;-74
2022/01/07 10:18:00;;;;;;;18.27;12.00;;;5.70;99.90;;;;;;5125174;27;20043;-70
2022/01/07 10:20:40;;;;;;;9.77;6.60;;;5.70;99.90;;;;;;5106931;27;20095;-69
2022/01/07 10:23:14;;;;;;;12.18;6.18;;;5.20;99.90;;;;;;5125409;27;20054;-72
2022/01/07 10:25:43;;;;;;;8.35;4.88;;;5.10;99.90;;;;;;5100673;28;20135;-71
2022/01/07 10:28:15;;;;;;;6.53;4.63;;;5.00;99.90;;;;;;5092344;28;21052;-69
2022/01/07 10:30:52;;;;;;;8.02;3.60;;;5.00;99.90;;;;;;5106248;27;20046;-69
2022/01/07 10:33:31;;;;;;;4.75;3.25;;;4.80;99.90;;;;;;5125264;27;20534;-72
2022/01/07 10:36:07;;;;;;;5.00;3.78;;;4.80;99.90;;;;;;5122512;27;20032;-71
2022/01/07 10:38:35;;;;;;;6.55;3.88;;;4.80;99.90;;;;;;5102603;28;20100;-72
2022/01/07 10:41:02;;;;;;;6.80;4.72;;;5.00;99.90;;;;;;5097018;27;20047;-72
2022/01/07 10:43:35;;;;;;;6.28;4.80;;;4.90;99.90;;;;;;5118829;27;20683;-73
2022/01/07 10:46:13;;;;;;;8.40;5.18;;;5.00;99.90;;;;;;5122549;27;20035;-74
2022/01/07 10:48:50;;;;;;;6.30;3.78;;;5.20;99.90;;;;;;5106322;27;20043;-70
2022/01/07 10:51:27;;;;;;;5.15;3.65;;;5.20;99.90;;;;;;5114292;27;20070;-73
2022/01/07 10:54:01;;;;;;;10.68;4.43;;;5.30;99.90;;;;;;5122876;27;20046;-72
2022/01/07 10:56:40;;;;;;;7.33;3.70;;;5.40;99.90;;;;;;5105984;27;20043;-72
2022/01/07 10:59:08;;;;;;;4.10;2.97;;;5.40;99.90;;;;;;5123975;27;20487;-74
2022/01/07 11:01:38;;;;;;;4.80;3.08;;;5.40;99.90;;;;;;5102815;27;20077;-73
2022/01/07 11:04:09;;;;;;;10.10;3.15;;;5.50;99.90;;;;;;5109709;27;20043;-74
2022/01/07 11:06:36;;;;;;;4.32;2.50;;;5.30;99.90;;;;;;5126212;27;20058;-71
2022/01/07 11:09:09;;;;;;;3.70;2.10;;;5.30;99.90;;;;;;5109547;27;20049;-73
2022/01/07 11:11:39;;;;;;;3.95;2.30;;;5.20;99.90;;;;;;5126482;27;20062;-73
2022/01/07 11:14:07;;;;;;;9.98;2.70;;;5.20;99.90;;;;;;5111166;27;20475;-75
2022/01/07 11:16:35;;;;;;;4.72;2.15;;;5.20;99.90;;;;;;5126567;27;20147;-72
2022/01/07 11:19:02;;;;;;;3.63;1.90;;;5.70;99.90;;;;;;5103381;27;20039;-75
2022/01/07 11:21:29;;;;;;;5.32;1.73;;;5.30;99.90;;;;;;5118460;27;20073;-73
2022/01/07 11:23:55;;;;;;;4.35;2.17;;;5.40;99.90;;;;;;5125542;27;20041;-74
2022/01/07 11:26:23;;;;;;;3.47;2.55;;;5.20;99.90;;;;;;5092188;27;20031;-72
2022/01/07 11:29:15;;;;;;;5.93;2.28;;;5.10;99.90;;;;;;5108948;27;20668;-72
2022/01/07 11:31:41;;;;;;;7.18;2.55;;;5.60;99.90;;;;;;5121394;27;20060;-71
2022/01/07 11:34:19;;;;;;;5.50;3.08;;;5.30;99.90;;;;;;5109350;27;20038;-71
2022/01/07 11:36:45;;;;;;;5.57;2.70;;;5.30;99.90;;;;;;5125520;27;20066;-71
2022/01/07 11:39:13;;;;;;;7.32;3.70;;;5.40;99.90;;;;;;5108994;27;20381;-72
2022/01/07 11:41:44;;;;;;;6.78;3.40;;;5.20;99.90;;;;;;5092150;27;20051;-71
2022/01/07 11:44:30;;;;;;;6.40;3.67;;;5.40;99.90;;;;;;5106037;27;20523;-70
2022/01/07 11:47:21;;;;;;;8.13;3.95;;;5.60;99.90;;;;;;5108841;27;20079;-73
2022/01/07 11:50:04;;;;;;;8.70;4.13;;;5.90;99.90;;;;;;5125994;27;20034;-72
2022/01/07 11:52:33;;;;;;;6.97;4.63;;;6.20;99.90;;;;;;5109241;27;20084;-72
2022/01/07 11:55:31;;;;;;;12.43;4.95;;;6.40;99.90;;;;;;5109137;27;20046;-72
2022/01/07 11:58:03;;;;;;;8.23;5.18;;;6.60;99.90;;;;;;5108584;27;20046;-73
2022/01/07 12:01:02;;;;;;;11.43;5.25;;;6.40;99.90;;;;;;5125799;27;20046;-72
2022/01/07 12:03:33;;;;;;;10.40;5.57;;;6.30;99.90;;;;;;5109444;27;20039;-72
2022/01/07 12:06:23;;;;;;;8.85;5.03;;;6.40;99.90;;;;;;5109189;27;20051;-75
2022/01/07 12:09:05;;;;;;;10.80;5.35;;;6.50;99.90;;;;;;5124873;27;20053;-69
2022/01/07 12:11:35;;;;;;;8.73;5.70;;;6.50;99.90;;;;;;5125545;27;20082;-74
2022/01/07 12:14:03;;;;;;;10.57;5.60;;;6.30;99.90;;;;;;5125750;27;20078;-71
2022/01/07 12:16:31;;;;;;;10.30;5.55;;;6.20;99.90;;;;;;5125703;27;20046;-73
2022/01/07 12:19:18;;;;;;;15.05;6.40;;;6.20;99.90;;;;;;5125039;27;20039;-71
2022/01/07 12:21:51;;;;;;;11.23;6.15;;;6.20;99.90;;;;;;5117705;27;20122;-71
2022/01/07 12:24:21;;;;;;;8.98;6.03;;;6.20;99.90;;;;;;5125946;27;20047;-71
2022/01/07 12:27:04;;;;;;;10.68;6.65;;;6.00;99.90;;;;;;5108758;27;20049;-73
2022/01/07 12:29:32;;;;;;;8.85;6.90;;;5.80;99.90;;;;;;5125064;27;20111;-75
2022/01/07 12:31:58;;;;;;;12.60;7.20;;;5.80;99.90;;;;;;5125811;27;20147;-70
2022/01/07 12:34:26;;;;;;;10.73;6.72;;;5.70;99.90;;;;;;5126215;27;20046;-72
2022/01/07 12:37:00;;;;;;;13.05;6.97;;;5.70;99.90;;;;;;5089606;28;20036;-74
2022/01/07 12:39:29;;;;;;;10.40;6.37;;;5.70;99.90;;;;;;5099491;27;20035;-73
2022/01/07 12:41:55;;;;;;;11.90;7.28;;;5.70;99.90;;;;;;5108748;27;20287;-75
2022/01/07 12:44:21;;;;;;;11.38;6.75;;;5.70;99.90;;;;;;5109239;27;20042;-71
2022/01/07 12:46:56;;;;;;;13.15;6.65;;;5.70;99.90;;;;;;5125608;27;20053;-72
2022/01/07 12:49:34;;;;;;;14.93;6.07;;;5.70;99.90;;;;;;5109240;27;20947;-71
2022/01/07 12:52:06;;;;;;;11.18;4.82;;;5.60;99.90;;;;;;5127157;27;20081;-76
2022/01/07 12:54:32;;;;;;;10.70;4.80;;;5.60;99.90;;;;;;5112891;27;20051;-74
2022/01/07 12:56:57;;;;;;;9.05;4.13;;;5.60;99.90;;;;;;5130217;27;20039;-73
2022/01/07 12:59:25;;;;;;;8.32;3.70;;;5.80;99.90;;;;;;5129628;27;20673;-71
2022/01/07 13:01:52;;;;;;;5.53;3.17;;;5.40;99.90;;;;;;5112188;27;20993;-73
2022/01/07 13:04:21;;;;;;;8.98;4.10;;;5.40;99.90;;;;;;5129598;27;20502;-72